createdAt,value
2023-03-22T00:00:15.429Z,45.32
2023-03-22T00:02:43.246Z,45.43
2023-03-22T00:05:10.926Z,45.34
2023-03-22T00:07:40.916Z,45.59
2023-03-22T00:10:09.036Z,45.63
2023-03-22T00:12:36.541Z,45.57
2023-03-22T00:15:04.587Z,45.64
2023-03-22T00:17:32.866Z,45.57
2023-03-22T00:20:00.412Z,45.58
2023-03-22T00:22:27.962Z,45.44
2023-03-22T00:24:55.515Z,45.45
2023-03-22T00:27:23.050Z,45.54
2023-03-22T00:29:53.666Z,45.64
2023-03-22T00:32:21.270Z,45.55
2023-03-22T00:34:50.677Z,45.78
2023-03-22T00:37:18.284Z,45.67
2023-03-22T00:39:46.660Z,45.69
2023-03-22T00:42:14.230Z,45.81
2023-03-22T00:44:41.825Z,45.72
2023-03-22T00:47:09.361Z,45.54
2023-03-22T00:49:37.475Z,45.50
2023-03-22T00:52:05.336Z,45.46
2023-03-22T00:54:33.334Z,45.53
2023-03-22T00:57:01.422Z,45.36
2023-03-22T00:59:29.578Z,45.43
2023-03-22T01:01:58.853Z,45.58
2023-03-22T01:04:28.807Z,45.55
2023-03-22T01:07:03.469Z,45.31
2023-03-22T01:09:33.720Z,45.34
2023-03-22T01:12:02.178Z,45.44
2023-03-22T01:14:31.648Z,45.51
2023-03-22T01:16:59.311Z,45.54
2023-03-22T01:19:27.534Z,45.42
2023-03-22T01:21:55.482Z,45.33
2023-03-22T01:24:23.530Z,45.29
2023-03-22T01:26:51.508Z,45.22
2023-03-22T01:29:19.017Z,45.12
2023-03-22T01:31:46.604Z,45.31
2023-03-22T01:34:14.786Z,45.33
2023-03-22T01:36:42.810Z,45.21
2023-03-22T01:39:11.012Z,45.37
2023-03-22T01:41:39.604Z,45.46
2023-03-22T01:44:15.737Z,45.39
2023-03-22T01:46:46.644Z,45.81
2023-03-22T01:49:29.422Z,46.02
2023-03-22T01:52:03.328Z,46.00
2023-03-22T01:54:52.610Z,45.90
2023-03-22T01:57:33.468Z,46.30
2023-03-22T02:00:03.983Z,46.08
2023-03-22T02:02:52.553Z,46.33
2023-03-22T02:05:31.316Z,46.33
2023-03-22T02:08:01.764Z,46.60
2023-03-22T02:10:34.049Z,46.34
2023-03-22T02:13:28.494Z,46.26
2023-03-22T02:16:50.909Z,46.38
2023-03-22T02:19:57.373Z,46.37
2023-03-22T02:22:41.715Z,46.48
2023-03-22T02:25:39.928Z,46.29
2023-03-22T02:28:43.658Z,46.55
2023-03-22T02:31:49.020Z,46.58
2023-03-22T02:34:40.359Z,46.67
2023-03-22T02:37:22.694Z,46.83
2023-03-22T02:40:12.780Z,46.88
2023-03-22T02:43:11.598Z,47.18
2023-03-22T02:46:08.744Z,47.15
2023-03-22T02:48:48.093Z,46.95
2023-03-22T02:51:27.023Z,46.99
2023-03-22T02:54:06.557Z,47.13
2023-03-22T02:56:51.890Z,47.33
2023-03-22T02:59:21.886Z,47.15
2023-03-22T03:01:57.317Z,47.29
2023-03-22T03:04:36.125Z,47.35
2023-03-22T03:07:09.431Z,47.11
2023-03-22T03:09:39.926Z,47.19
2023-03-22T03:12:19.401Z,47.28
2023-03-22T03:14:47.534Z,47.22
2023-03-22T03:17:27.744Z,47.37
2023-03-22T03:20:37.298Z,47.23
2023-03-22T03:24:01.525Z,47.22
2023-03-22T03:26:56.953Z,47.11
2023-03-22T03:29:50.649Z,47.01
2023-03-22T03:32:29.078Z,47.23
2023-03-22T03:35:22.454Z,47.28
2023-03-22T03:38:10.307Z,47.10
2023-03-22T03:40:45.270Z,47.10
2023-03-22T03:43:14.035Z,47.19
2023-03-22T03:45:42.184Z,47.39
2023-03-22T03:48:18.220Z,47.15
2023-03-22T03:50:50.286Z,47.38
2023-03-22T03:53:18.122Z,47.12
2023-03-22T03:55:46.299Z,47.48
2023-03-22T03:58:16.602Z,47.12
2023-03-22T04:00:47.601Z,47.13
2023-03-22T04:03:29.015Z,47.30
2023-03-22T04:06:16.971Z,47.07
2023-03-22T04:08:53.472Z,47.16
2023-03-22T04:11:24.390Z,47.36
2023-03-22T04:13:56.257Z,47.42
2023-03-22T04:16:25.051Z,47.22
2023-03-22T04:18:53.290Z,47.39
2023-03-22T04:21:21.738Z,47.72
2023-03-22T04:23:58.175Z,47.24
2023-03-22T04:26:28.347Z,47.55
2023-03-22T04:29:11.008Z,47.68
2023-03-22T04:31:43.565Z,47.53
2023-03-22T04:34:40.064Z,47.56
2023-03-22T04:37:13.913Z,47.68
2023-03-22T04:40:16.533Z,47.42
2023-03-22T04:43:06.042Z,47.44
2023-03-22T04:45:48.751Z,47.46
2023-03-22T04:48:22.163Z,47.82
2023-03-22T04:50:53.280Z,47.92
2023-03-22T04:53:27.252Z,47.81
2023-03-22T04:55:58.812Z,47.75
2023-03-22T04:58:28.020Z,47.47
2023-03-22T05:00:55.664Z,47.47
2023-03-22T05:03:24.121Z,47.84
2023-03-22T05:05:59.262Z,47.96
2023-03-22T05:08:35.784Z,47.91
2023-03-22T05:11:14.863Z,47.85
2023-03-22T05:13:46.243Z,48.08
2023-03-22T05:16:16.122Z,47.96
2023-03-22T05:18:54.367Z,47.93
2023-03-22T05:21:28.030Z,48.01
2023-03-22T05:23:59.168Z,48.06
2023-03-22T05:26:27.034Z,47.82
2023-03-22T05:28:56.773Z,48.06
2023-03-22T05:31:40.970Z,47.91
2023-03-22T05:34:09.692Z,47.83
2023-03-22T05:36:39.319Z,47.71
2023-03-22T05:39:18.004Z,48.08
2023-03-22T05:41:46.401Z,47.86
2023-03-22T05:44:14.610Z,47.90
2023-03-22T05:46:51.508Z,47.53
2023-03-22T05:49:28.506Z,47.50
2023-03-22T05:51:56.516Z,47.54
2023-03-22T05:54:29.146Z,47.78
2023-03-22T05:56:56.854Z,47.71
2023-03-22T05:59:25.275Z,47.62
2023-03-22T06:01:52.990Z,47.66
2023-03-22T06:04:24.007Z,48.08
2023-03-22T06:06:58.219Z,47.63
2023-03-22T06:09:41.643Z,48.12
2023-03-22T06:12:16.226Z,47.94
2023-03-22T06:14:47.791Z,47.99
2023-03-22T06:17:31.452Z,47.77
2023-03-22T06:19:59.251Z,47.50
2023-03-22T06:22:26.929Z,47.74
2023-03-22T06:24:54.577Z,47.93
2023-03-22T06:27:31.698Z,47.70
2023-03-22T06:29:59.548Z,47.82
2023-03-22T06:32:27.708Z,47.62
2023-03-22T06:34:56.860Z,47.79
2023-03-22T06:37:25.247Z,47.54
2023-03-22T06:39:52.965Z,47.60
2023-03-22T06:42:26.151Z,47.56
2023-03-22T06:45:04.854Z,47.24
2023-03-22T06:47:35.801Z,47.36
2023-03-22T06:50:27.632Z,47.19
2023-03-22T06:53:03.779Z,47.26
2023-03-22T06:55:34.879Z,47.28
2023-03-22T06:58:11.689Z,47.10
2023-03-22T07:00:39.876Z,47.14
2023-03-22T07:03:08.987Z,47.33
2023-03-22T07:06:08.654Z,47.25
2023-03-22T07:08:39.839Z,47.16
2023-03-22T07:11:09.080Z,46.97
2023-03-22T07:13:37.231Z,47.15
2023-03-22T07:16:11.305Z,46.91
2023-03-22T07:18:43.146Z,46.91
2023-03-22T07:21:11.275Z,46.96
2023-03-22T07:23:41.651Z,46.89
2023-03-22T07:26:13.444Z,46.65
2023-03-22T07:28:44.518Z,46.78
2023-03-22T07:31:14.677Z,46.73
2023-03-22T07:33:56.255Z,46.44
2023-03-22T07:36:26.546Z,46.33
2023-03-22T07:38:55.700Z,46.22
2023-03-22T07:41:30.185Z,46.14
2023-03-22T07:44:18.358Z,46.20
2023-03-22T07:47:11.884Z,46.06
2023-03-22T07:49:51.467Z,45.95
2023-03-22T07:52:24.326Z,45.91
2023-03-22T07:54:51.918Z,45.99
2023-03-22T07:57:19.474Z,45.78
2023-03-22T07:59:53.835Z,45.75
2023-03-22T08:02:21.468Z,45.68
2023-03-22T08:04:56.433Z,45.63
2023-03-22T08:07:37.811Z,45.54
2023-03-22T08:10:05.709Z,45.45
2023-03-22T08:12:34.086Z,45.42
2023-03-22T08:15:14.411Z,45.19
2023-03-22T08:17:43.229Z,45.09
2023-03-22T08:20:18.389Z,45.21
2023-03-22T08:22:51.614Z,45.09
2023-03-22T08:25:23.593Z,44.98
2023-03-22T08:27:53.418Z,44.69
2023-03-22T08:30:22.287Z,44.62
2023-03-22T08:32:50.196Z,44.73
2023-03-22T08:35:17.852Z,44.52
2023-03-22T08:37:45.532Z,44.56
2023-03-22T08:40:13.442Z,44.60
2023-03-22T08:42:50.588Z,44.53
2023-03-22T08:45:19.302Z,44.08
2023-03-22T08:48:00.707Z,43.96
2023-03-22T08:50:30.419Z,43.96
2023-03-22T08:53:08.703Z,43.98
2023-03-22T08:55:37.553Z,43.55
2023-03-22T08:58:20.014Z,43.60
2023-03-22T09:01:16.624Z,43.70
2023-03-22T09:04:05.281Z,43.56
2023-03-22T09:06:34.039Z,43.28
2023-03-22T09:09:01.760Z,43.45
2023-03-22T09:11:29.463Z,43.29
2023-03-22T09:13:57.567Z,43.23
2023-03-22T09:16:25.183Z,43.12
2023-03-22T09:18:52.943Z,43.06
2023-03-22T09:21:22.391Z,43.08
2023-03-22T09:24:04.910Z,43.19
2023-03-22T09:26:41.465Z,42.77
2023-03-22T09:29:09.481Z,42.37
2023-03-22T09:31:37.136Z,42.54
2023-03-22T09:34:17.846Z,42.16
2023-03-22T09:36:46.258Z,42.50
2023-03-22T09:39:16.418Z,42.45
2023-03-22T09:41:52.751Z,41.93
2023-03-22T09:44:36.101Z,41.89
2023-03-22T09:47:15.429Z,41.68
2023-03-22T09:49:53.640Z,41.69
2023-03-22T09:52:21.899Z,41.53
2023-03-22T09:54:52.233Z,41.92
2023-03-22T09:57:32.414Z,41.75
2023-03-22T10:00:33.348Z,41.83
2023-03-22T10:03:41.020Z,41.67
2023-03-22T10:06:23.612Z,41.51
2023-03-22T10:09:28.593Z,41.25
2023-03-22T10:12:16.399Z,41.08
2023-03-22T10:15:10.296Z,41.03
2023-03-22T10:17:41.104Z,40.90
2023-03-22T10:20:38.737Z,41.01
2023-03-22T10:23:13.650Z,40.64
2023-03-22T10:25:43.043Z,40.44
2023-03-22T10:28:25.462Z,40.53
2023-03-22T10:30:56.900Z,40.58
2023-03-22T10:33:52.257Z,40.68
2023-03-22T10:36:24.974Z,40.21
2023-03-22T10:38:58.836Z,40.02
2023-03-22T10:41:28.474Z,40.11
2023-03-22T10:44:00.459Z,40.04
2023-03-22T10:46:38.243Z,39.88
2023-03-22T10:49:07.295Z,39.39
2023-03-22T10:51:46.425Z,39.42
2023-03-22T10:54:17.112Z,39.46
2023-03-22T10:56:46.219Z,39.06
2023-03-22T10:59:42.750Z,39.46
2023-03-22T11:02:21.725Z,39.52
2023-03-22T11:04:59.240Z,39.32
2023-03-22T11:07:33.815Z,39.46
2023-03-22T11:10:21.751Z,39.42
2023-03-22T11:13:07.669Z,38.92
2023-03-22T11:15:42.182Z,39.05
2023-03-22T11:18:16.306Z,39.07
2023-03-22T11:20:59.133Z,39.16
2023-03-22T11:23:29.224Z,38.96
2023-03-22T11:26:06.711Z,39.25
2023-03-22T11:28:50.167Z,39.12
2023-03-22T11:31:20.715Z,38.72
2023-03-22T11:33:59.641Z,38.28
2023-03-22T11:36:29.767Z,38.15
2023-03-22T11:39:06.301Z,38.22
2023-03-22T11:41:40.356Z,37.83
2023-03-22T11:44:18.985Z,37.74
2023-03-22T11:47:03.468Z,37.74
2023-03-22T11:49:50.406Z,37.66
2023-03-22T11:52:24.261Z,37.12
2023-03-22T11:54:54.116Z,36.49
2023-03-22T11:57:27.428Z,36.54
2023-03-22T12:00:05.357Z,35.19
2023-03-22T12:02:41.763Z,33.17
2023-03-22T12:05:22.829Z,33.79
2023-03-22T12:08:15.931Z,33.93
2023-03-22T12:10:49.119Z,31.96
2023-03-22T12:13:21.614Z,32.12
2023-03-22T12:16:00.965Z,32.23
2023-03-22T12:18:47.361Z,32.35
2023-03-22T12:21:15.652Z,31.95
2023-03-22T12:23:43.293Z,31.45
2023-03-22T12:26:26.423Z,31.25
2023-03-22T12:29:08.153Z,31.73
2023-03-22T12:32:07.283Z,30.08
2023-03-22T12:34:57.960Z,31.41
2023-03-22T12:37:39.281Z,30.65
2023-03-22T12:40:22.765Z,30.86
2023-03-22T12:43:07.866Z,31.70
2023-03-22T12:45:43.598Z,31.13
2023-03-22T12:48:29.964Z,30.83
2023-03-22T12:51:02.986Z,31.03
2023-03-22T12:53:50.679Z,31.11
2023-03-22T12:56:25.599Z,30.35
2023-03-22T12:58:59.788Z,29.96
2023-03-22T13:01:45.104Z,29.00
2023-03-22T13:04:35.890Z,29.02
2023-03-22T13:07:16.276Z,29.52
2023-03-22T13:09:49.852Z,29.34
2023-03-22T13:12:17.180Z,28.81
2023-03-22T13:14:50.829Z,28.71
2023-03-22T13:17:24.832Z,29.16
2023-03-22T13:20:06.742Z,29.18
2023-03-22T13:22:43.202Z,29.55
2023-03-22T13:25:13.634Z,29.09
2023-03-22T13:27:54.524Z,29.41
2023-03-22T13:30:54.961Z,29.61
2023-03-22T13:33:36.846Z,28.33
2023-03-22T13:36:25.219Z,28.75
2023-03-22T13:39:12.363Z,28.60
2023-03-22T13:41:40.263Z,28.39
2023-03-22T13:44:37.093Z,27.54
2023-03-22T13:47:29.676Z,28.62
2023-03-22T13:53:14.580Z,28.06
2023-03-22T13:55:51.803Z,27.52
2023-03-22T13:58:53.607Z,27.26
2023-03-22T14:01:36.637Z,26.46
2023-03-22T14:04:12.290Z,27.58
2023-03-22T14:07:06.999Z,27.81
2023-03-22T14:09:50.537Z,27.01
2023-03-22T14:12:52.193Z,26.97
2023-03-22T14:15:26.257Z,26.69
2023-03-22T14:18:15.378Z,26.24
2023-03-22T14:20:44.463Z,25.91
